Time;durP1;ratioP1;P1;durP2;ratioP2;P2;SDS_P1;SDS_P2;PMS_P1;PMS_P2;Temp;Humidity;BMP_temperature;BMP_pressure;BME280_temperature;BME280_humidity;BME280_pressure;Samples;Min_cycle;Max_cycle;Signal;HPM_P1;HPM_P2
2022/05/19 00:00:36;;;;;;;0.00;0.00;;;18.80;99.90;;;;;;5073916;28;20157;-78
2022/05/19 00:03:02;;;;;;;0.35;0.35;;;18.70;99.90;;;;;;5074768;28;20048;-79
2022/05/19 00:05:28;;;;;;;0.95;0.45;;;18.70;99.90;;;;;;5074344;28;20423;-79
2022/05/19 00:07:54;;;;;;;0.00;0.00;;;18.70;99.90;;;;;;5073913;28;20037;-79
2022/05/19 00:10:20;;;;;;;0.00;0.00;;;18.70;99.90;;;;;;5057184;28;20047;-79
2022/05/19 00:12:45;;;;;;;0.00;0.00;;;18.60;99.90;;;;;;5074219;28;20081;-79
2022/05/19 00:15:12;;;;;;;2.88;0.52;;;18.60;99.90;;;;;;5057298;28;20044;-79
2022/05/19 00:17:39;;;;;;;0.20;0.20;;;18.50;99.90;;;;;;5074459;28;20506;-79
2022/05/19 00:20:05;;;;;;;0.90;0.30;;;18.50;99.90;;;;;;5059489;28;20044;-79
2022/05/19 00:22:31;;;;;;;0.10;0.10;;;18.50;99.90;;;;;;5076551;28;20044;-79
2022/05/19 00:24:57;;;;;;;0.10;0.10;;;18.40;99.90;;;;;;5060567;28;20051;-79
2022/05/19 00:27:23;;;;;;;0.00;0.00;;;18.40;99.90;;;;;;5076175;28;20418;-78
2022/05/19 00:29:48;;;;;;;0.20;0.10;;;18.40;99.90;;;;;;5058359;28;20135;-78
2022/05/19 00:32:14;;;;;;;0.15;0.13;;;18.30;99.90;;;;;;5073460;28;20361;-79
2022/05/19 00:34:40;;;;;;;0.55;0.35;;;18.30;99.90;;;;;;5073317;28;20044;-79
2022/05/19 00:37:05;;;;;;;0.00;0.00;;;18.30;99.90;;;;;;5073452;28;20048;-78
2022/05/19 00:39:34;;;;;;;0.10;0.00;;;18.20;99.90;;;;;;5056707;28;20055;-78
2022/05/19 00:44:44;;;;;;;0.10;0.10;;;18.10;99.90;;;;;;5073385;28;20091;-79
2022/05/19 00:47:21;;;;;;;1.33;0.30;;;18.10;99.90;;;;;;5073145;28;20388;-78
2022/05/19 00:49:48;;;;;;;1.02;0.38;;;18.10;99.90;;;;;;5056126;28;20052;-78
2022/05/19 00:52:30;;;;;;;0.10;0.10;;;18.00;99.90;;;;;;5056302;28;20044;-79
2022/05/19 00:55:07;;;;;;;0.20;0.15;;;18.00;99.90;;;;;;5073060;28;20052;-78
2022/05/19 00:57:38;;;;;;;0.10;0.10;;;17.90;99.90;;;;;;5073551;28;20067;-78
2022/05/19 01:00:11;;;;;;;0.47;0.47;;;18.00;99.90;;;;;;5056686;28;20055;-78
2022/05/19 01:02:41;;;;;;;3.15;0.57;;;17.90;99.90;;;;;;5056339;28;20507;-78
2022/05/19 01:05:20;;;;;;;0.03;0.03;;;17.90;99.90;;;;;;5072969;28;20037;-78
2022/05/19 01:08:09;;;;;;;0.10;0.00;;;17.90;99.90;;;;;;5073529;28;20048;-78
2022/05/19 01:10:37;;;;;;;0.03;0.03;;;17.80;99.90;;;;;;5072807;28;20045;-78
2022/05/19 01:13:03;;;;;;;0.10;0.10;;;17.70;99.90;;;;;;5072677;28;20089;-78
2022/05/19 01:15:37;;;;;;;0.00;0.00;;;17.80;99.90;;;;;;5072817;28;20044;-78
2022/05/19 01:18:03;;;;;;;0.17;0.08;;;17.80;99.90;;;;;;5056784;28;20059;-78
2022/05/19 01:20:29;;;;;;;0.00;0.00;;;17.70;99.90;;;;;;5072730;28;20041;-78
2022/05/19 01:22:55;;;;;;;0.05;0.05;;;17.70;99.90;;;;;;5055826;28;20056;-78
2022/05/19 01:25:45;;;;;;;0.75;0.38;;;17.70;99.90;;;;;;5072988;28;20044;-78
2022/05/19 01:28:11;;;;;;;1.40;0.25;;;17.70;99.90;;;;;;5072008;28;20492;-78
2022/05/19 01:30:38;;;;;;;0.10;0.10;;;17.70;99.90;;;;;;5055746;28;20135;-78
2022/05/19 01:33:04;;;;;;;0.10;0.10;;;17.70;99.90;;;;;;5072496;28;20053;-78
2022/05/19 01:35:33;;;;;;;0.22;0.20;;;17.70;99.90;;;;;;5072590;28;20052;-78
2022/05/19 01:38:02;;;;;;;0.00;0.00;;;17.70;99.90;;;;;;5055762;28;20056;-78
2022/05/19 01:40:37;;;;;;;0.30;0.20;;;17.70;99.90;;;;;;5072252;28;20404;-78
2022/05/19 01:43:24;;;;;;;0.10;0.10;;;17.70;99.90;;;;;;5072301;28;20044;-78
2022/05/19 01:46:11;;;;;;;0.20;0.20;;;17.60;99.90;;;;;;5072600;28;20048;-78
2022/05/19 01:48:50;;;;;;;0.00;0.00;;;17.60;99.90;;;;;;5055868;28;20041;-78
2022/05/19 01:51:47;;;;;;;0.00;0.00;;;17.60;99.90;;;;;;5072737;28;20075;-78
2022/05/19 01:54:43;;;;;;;0.05;0.00;;;17.60;99.90;;;;;;5072489;28;20083;-78
2022/05/19 01:57:27;;;;;;;0.70;0.55;;;17.60;99.90;;;;;;5072409;28;20049;-78
2022/05/19 02:00:08;;;;;;;0.22;0.22;;;17.60;99.90;;;;;;5072592;28;20041;-78
2022/05/19 02:02:52;;;;;;;0.00;0.00;;;17.60;99.90;;;;;;5055664;28;20496;-78
2022/05/19 02:05:27;;;;;;;0.10;0.10;;;17.60;99.90;;;;;;5055732;28;20454;-78
2022/05/19 02:07:56;;;;;;;0.43;0.13;;;17.60;99.90;;;;;;5072221;28;20044;-78
2022/05/19 02:10:30;;;;;;;0.05;0.05;;;17.60;99.90;;;;;;5075282;28;20465;-78
2022/05/19 02:12:59;;;;;;;1.00;0.32;;;17.60;99.90;;;;;;5059499;28;20056;-78
2022/05/19 02:15:27;;;;;;;0.00;0.00;;;17.60;99.90;;;;;;5059142;28;20480;-78
2022/05/19 02:17:55;;;;;;;0.20;0.20;;;17.50;99.90;;;;;;5059444;28;20053;-78
2022/05/19 02:20:24;;;;;;;0.17;0.10;;;17.60;99.90;;;;;;5059063;28;20110;-78
2022/05/19 02:22:50;;;;;;;0.10;0.10;;;17.50;99.90;;;;;;5075812;28;20059;-78
2022/05/19 02:25:31;;;;;;;0.32;0.20;;;17.50;99.90;;;;;;5059168;28;20106;-78
2022/05/19 02:28:03;;;;;;;0.63;0.22;;;17.50;99.90;;;;;;5075866;28;20037;-78
2022/05/19 02:30:39;;;;;;;0.10;0.10;;;17.40;99.90;;;;;;5075617;28;20139;-78
2022/05/19 02:33:05;;;;;;;0.13;0.13;;;17.40;99.90;;;;;;5059325;28;20564;-78
2022/05/19 02:35:31;;;;;;;0.10;0.10;;;17.40;99.90;;;;;;5059015;28;20044;-78
2022/05/19 02:37:57;;;;;;;0.28;0.28;;;17.40;99.90;;;;;;5075703;28;20549;-78
2022/05/19 02:40:25;;;;;;;0.17;0.17;;;17.30;99.90;;;;;;5075554;28;20078;-78
2022/05/19 02:42:51;;;;;;;0.00;0.00;;;17.30;99.90;;;;;;5075463;28;20049;-78
2022/05/19 02:45:19;;;;;;;0.20;0.20;;;17.30;99.90;;;;;;5075325;28;20075;-78
2022/05/19 02:47:45;;;;;;;0.00;0.00;;;17.20;99.90;;;;;;5058942;28;20059;-78
2022/05/19 02:50:12;;;;;;;0.28;0.28;;;17.20;99.90;;;;;;5058569;28;20056;-77
2022/05/19 02:52:38;;;;;;;0.00;0.00;;;17.20;99.90;;;;;;5075183;28;20101;-78
2022/05/19 02:55:05;;;;;;;0.10;0.10;;;17.20;99.90;;;;;;5075338;28;20131;-77
2022/05/19 02:57:31;;;;;;;0.38;0.38;;;17.20;99.90;;;;;;5074977;28;20049;-78
2022/05/19 02:59:56;;;;;;;0.25;0.25;;;17.20;99.90;;;;;;5074927;28;20056;-78
2022/05/19 03:02:22;;;;;;;0.80;0.55;;;17.20;99.90;;;;;;5075342;28;20392;-78
2022/05/19 03:04:48;;;;;;;1.65;0.50;;;17.20;99.90;;;;;;5058326;28;20041;-78
2022/05/19 03:07:13;;;;;;;2.20;0.25;;;17.20;99.90;;;;;;5075078;28;20044;-78
2022/05/19 03:09:42;;;;;;;0.08;0.08;;;17.20;99.90;;;;;;5058162;28;20036;-78
2022/05/19 03:12:09;;;;;;;0.25;0.15;;;17.20;99.90;;;;;;5074891;28;20109;-78
2022/05/19 03:14:35;;;;;;;0.10;0.10;;;17.30;99.90;;;;;;5058323;28;20037;-78
2022/05/19 03:17:01;;;;;;;0.43;0.20;;;17.20;99.90;;;;;;5058068;28;20055;-78
2022/05/19 03:19:26;;;;;;;0.20;0.20;;;17.20;99.90;;;;;;5074843;28;20041;-78
2022/05/19 03:21:52;;;;;;;0.08;0.08;;;17.20;99.90;;;;;;5056372;28;20048;-78
2022/05/19 03:24:18;;;;;;;0.17;0.17;;;17.20;99.90;;;;;;5057097;28;20048;-78
2022/05/19 03:26:44;;;;;;;0.00;0.00;;;17.20;99.90;;;;;;5072393;28;20052;-78
2022/05/19 03:29:09;;;;;;;1.48;0.30;;;17.10;99.90;;;;;;5074040;28;20507;-78
2022/05/19 03:31:35;;;;;;;0.20;0.20;;;17.10;99.90;;;;;;5074469;28;20115;-78
2022/05/19 03:34:02;;;;;;;0.73;0.73;;;17.10;99.90;;;;;;5074311;28;20044;-78
2022/05/19 03:36:29;;;;;;;0.00;0.00;;;17.10;99.90;;;;;;5057701;28;20063;-78
2022/05/19 03:38:55;;;;;;;2.85;0.45;;;17.10;99.90;;;;;;5074290;28;20135;-78
2022/05/19 03:41:22;;;;;;;0.25;0.25;;;17.10;99.90;;;;;;5074340;28;20086;-78
2022/05/19 03:43:49;;;;;;;0.28;0.25;;;17.10;99.90;;;;;;5057968;28;20048;-78
2022/05/19 03:46:14;;;;;;;1.08;0.05;;;17.10;99.90;;;;;;5074345;28;20101;-78
2022/05/19 03:48:40;;;;;;;0.57;0.57;;;17.10;99.90;;;;;;5074555;28;20485;-78
2022/05/19 03:51:17;;;;;;;2.88;0.43;;;17.10;99.90;;;;;;5057183;28;20144;-78
2022/05/19 03:53:42;;;;;;;0.10;0.10;;;17.00;99.90;;;;;;5074083;28;20044;-78
2022/05/19 03:56:08;;;;;;;0.22;0.10;;;17.00;99.90;;;;;;5074222;28;20053;-78
2022/05/19 03:58:34;;;;;;;0.00;0.00;;;17.00;99.90;;;;;;5074157;28;20381;-79
2022/05/19 04:00:59;;;;;;;0.20;0.20;;;17.00;99.90;;;;;;5074425;28;20051;-79
2022/05/19 04:03:25;;;;;;;0.10;0.10;;;17.00;99.90;;;;;;5074011;28;20500;-79
2022/05/19 04:05:51;;;;;;;0.77;0.20;;;17.00;99.90;;;;;;5057354;28;20479;-79
2022/05/19 04:08:16;;;;;;;0.20;0.20;;;17.00;99.90;;;;;;5057114;28;20361;-79
2022/05/19 04:10:44;;;;;;;1.45;1.15;;;17.10;99.90;;;;;;5056972;28;20094;-79
2022/05/19 04:13:11;;;;;;;0.47;0.38;;;17.10;99.90;;;;;;5056810;28;20044;-78
2022/05/19 04:15:38;;;;;;;3.90;0.38;;;17.10;99.90;;;;;;5073669;28;20080;-79
2022/05/19 04:18:04;;;;;;;1.10;0.35;;;17.10;99.90;;;;;;5073613;28;20044;-78
2022/05/19 04:20:30;;;;;;;0.68;0.52;;;17.10;99.90;;;;;;5057005;28;20392;-79
2022/05/19 04:22:57;;;;;;;0.00;0.00;;;17.20;99.90;;;;;;5073517;28;20377;-79
2022/05/19 04:25:23;;;;;;;0.93;0.20;;;17.20;99.90;;;;;;5073328;28;20132;-79
2022/05/19 04:27:49;;;;;;;0.20;0.20;;;17.20;99.90;;;;;;5073454;28;20076;-79
2022/05/19 04:30:14;;;;;;;0.73;0.73;;;17.30;99.90;;;;;;5073260;28;20043;-79
2022/05/19 04:32:41;;;;;;;1.00;0.43;;;17.20;99.90;;;;;;5073058;28;20534;-79
2022/05/19 04:35:07;;;;;;;0.00;0.00;;;17.40;99.90;;;;;;5073344;28;20044;-79
2022/05/19 04:37:33;;;;;;;0.22;0.05;;;17.30;99.90;;;;;;5056489;28;20056;-79
2022/05/19 04:40:01;;;;;;;0.10;0.10;;;17.30;99.90;;;;;;5057283;28;20048;-79
2022/05/19 04:42:27;;;;;;;0.10;0.10;;;17.40;99.90;;;;;;5056516;28;20060;-80
2022/05/19 04:44:56;;;;;;;0.00;0.00;;;17.50;99.90;;;;;;5056407;28;20094;-79
2022/05/19 04:47:23;;;;;;;0.00;0.00;;;17.50;99.90;;;;;;5073447;28;20037;-79
2022/05/19 04:49:48;;;;;;;0.08;0.08;;;17.60;99.90;;;;;;5056217;28;20136;-79
2022/05/19 04:52:14;;;;;;;0.75;0.75;;;17.60;99.90;;;;;;5072845;28;20160;-79
2022/05/19 04:54:40;;;;;;;0.82;0.40;;;17.70;99.90;;;;;;5073015;28;20052;-79
2022/05/19 04:57:07;;;;;;;0.13;0.10;;;17.70;99.90;;;;;;5056334;28;20056;-79
2022/05/19 04:59:36;;;;;;;0.73;0.10;;;17.80;99.90;;;;;;5072970;28;20041;-79
2022/05/19 05:02:02;;;;;;;6.32;1.00;;;17.90;99.90;;;;;;5072958;28;20055;-79
2022/05/19 05:04:28;;;;;;;0.08;0.08;;;17.90;99.90;;;;;;5056339;28;20492;-79
2022/05/19 05:06:54;;;;;;;0.90;0.63;;;18.00;99.90;;;;;;5056066;28;20056;-79
2022/05/19 05:09:19;;;;;;;0.75;0.28;;;18.10;99.90;;;;;;5073315;28;20047;-78
2022/05/19 05:11:45;;;;;;;0.10;0.10;;;18.20;99.90;;;;;;5056183;28;20103;-78
2022/05/19 05:14:11;;;;;;;0.20;0.20;;;18.30;99.90;;;;;;5072857;28;20048;-78
2022/05/19 05:16:37;;;;;;;0.57;0.20;;;18.30;99.90;;;;;;5072800;28;20048;-78
2022/05/19 05:19:04;;;;;;;1.42;0.55;;;18.50;99.90;;;;;;5055922;28;20055;-78
2022/05/19 05:21:30;;;;;;;0.20;0.20;;;18.60;99.90;;;;;;5056021;28;20049;-78
2022/05/19 05:23:55;;;;;;;0.15;0.15;;;18.70;99.90;;;;;;5073330;28;20109;-78
2022/05/19 05:26:21;;;;;;;1.25;1.15;;;18.90;99.90;;;;;;5055867;28;20484;-78
2022/05/19 05:28:47;;;;;;;0.10;0.10;;;19.00;99.90;;;;;;5072525;28;20048;-78
2022/05/19 05:31:13;;;;;;;0.28;0.28;;;19.00;99.90;;;;;;5055904;28;20460;-78
2022/05/19 05:33:38;;;;;;;0.43;0.20;;;19.20;99.90;;;;;;5072647;28;20040;-79
2022/05/19 05:36:04;;;;;;;0.30;0.20;;;19.30;99.90;;;;;;5072392;28;20060;-78
2022/05/19 05:38:31;;;;;;;0.68;0.68;;;19.30;99.90;;;;;;5073155;28;20055;-78
2022/05/19 05:40:58;;;;;;;0.25;0.15;;;19.30;99.90;;;;;;5072479;28;20050;-78
2022/05/19 05:43:24;;;;;;;0.40;0.20;;;19.30;99.90;;;;;;5055902;28;20105;-78
2022/05/19 05:45:51;;;;;;;1.35;0.50;;;19.40;99.90;;;;;;5075939;28;20094;-78
2022/05/19 05:48:17;;;;;;;1.13;0.73;;;19.40;99.90;;;;;;5076483;28;20078;-78
2022/05/19 05:50:44;;;;;;;0.10;0.10;;;19.50;99.90;;;;;;5059556;28;20056;-79
2022/05/19 05:53:10;;;;;;;2.35;0.40;;;19.60;99.90;;;;;;5075664;28;20090;-79
2022/05/19 05:55:39;;;;;;;1.13;0.57;;;19.70;99.90;;;;;;5076869;28;20502;-78
2022/05/19 05:58:10;;;;;;;0.20;0.15;;;19.80;99.90;;;;;;5059656;28;20060;-78
2022/05/19 06:00:38;;;;;;;1.77;0.45;;;19.90;99.90;;;;;;5076483;28;20413;-79
2022/05/19 06:03:04;;;;;;;0.63;0.63;;;20.00;99.90;;;;;;5059546;28;20041;-79
2022/05/19 06:05:29;;;;;;;0.20;0.20;;;20.10;99.90;;;;;;5076331;28;20043;-78
2022/05/19 06:07:55;;;;;;;0.77;0.77;;;20.10;99.90;;;;;;5076449;28;20049;-78
2022/05/19 06:10:21;;;;;;;0.20;0.20;;;20.10;99.90;;;;;;5059206;28;20125;-78
2022/05/19 06:12:47;;;;;;;0.32;0.32;;;20.10;99.90;;;;;;5076111;28;20055;-79
2022/05/19 06:15:14;;;;;;;0.90;0.50;;;20.10;99.90;;;;;;5074595;28;20496;-79
2022/05/19 06:17:40;;;;;;;0.15;0.15;;;20.10;99.90;;;;;;5075664;28;20041;-77
2022/05/19 06:20:12;;;;;;;0.35;0.28;;;20.10;99.90;;;;;;5059274;28;20059;-77
2022/05/19 06:22:39;;;;;;;0.10;0.10;;;20.10;99.90;;;;;;5075915;28;20048;-77
2022/05/19 06:25:06;;;;;;;0.13;0.13;;;20.10;99.90;;;;;;5059096;28;20496;-77
2022/05/19 06:27:32;;;;;;;0.00;0.00;;;20.20;99.90;;;;;;5058740;28;20427;-77
2022/05/19 06:29:57;;;;;;;0.10;0.10;;;20.30;99.90;;;;;;5058388;28;20041;-76
2022/05/19 06:32:23;;;;;;;0.13;0.13;;;20.40;99.90;;;;;;5058906;28;20092;-76
2022/05/19 06:34:49;;;;;;;0.10;0.00;;;20.50;99.90;;;;;;5075615;28;20048;-77
2022/05/19 06:37:14;;;;;;;0.00;0.00;;;20.60;99.90;;;;;;5059053;28;20057;-77
2022/05/19 06:39:40;;;;;;;0.13;0.13;;;20.70;99.90;;;;;;5075431;28;20044;-77
2022/05/19 06:42:14;;;;;;;0.10;0.00;;;20.80;99.90;;;;;;5075801;28;20048;-77
2022/05/19 06:44:41;;;;;;;1.88;0.10;;;20.90;99.90;;;;;;5075503;28;20477;-77
2022/05/19 06:47:13;;;;;;;0.00;0.00;;;21.10;99.90;;;;;;5075366;28;20036;-77
2022/05/19 06:49:52;;;;;;;0.10;0.00;;;21.20;99.90;;;;;;5058889;28;20400;-77
2022/05/19 06:52:24;;;;;;;0.00;0.00;;;21.30;99.90;;;;;;5058580;28;20140;-77
2022/05/19 06:54:53;;;;;;;0.13;0.13;;;21.40;99.90;;;;;;5075256;28;20098;-77
2022/05/19 06:57:20;;;;;;;0.00;0.00;;;21.40;99.90;;;;;;5058495;28;20052;-77
2022/05/19 06:59:47;;;;;;;0.00;0.00;;;21.40;99.90;;;;;;5075274;28;20080;-77
2022/05/19 07:02:14;;;;;;;0.00;0.00;;;21.50;99.90;;;;;;5058538;28;20048;-77
2022/05/19 07:04:40;;;;;;;0.10;0.10;;;21.50;99.90;;;;;;5075226;28;20044;-78
2022/05/19 07:07:06;;;;;;;0.00;0.00;;;21.60;99.90;;;;;;5058498;28;20123;-78
2022/05/19 07:09:34;;;;;;;0.05;0.05;;;21.70;99.90;;;;;;5074809;28;20056;-77
2022/05/19 07:12:00;;;;;;;0.00;0.00;;;21.80;99.90;;;;;;5075115;28;20064;-77
2022/05/19 07:14:27;;;;;;;0.00;0.00;;;21.90;99.90;;;;;;5074313;28;20067;-77
2022/05/19 07:16:53;;;;;;;0.00;0.00;;;22.00;99.90;;;;;;5057897;28;20095;-77
2022/05/19 07:22:13;;;;;;;0.00;0.00;;;22.30;99.90;;;;;;5074961;28;20049;-77
2022/05/19 07:24:39;;;;;;;0.00;0.00;;;22.20;99.90;;;;;;5075214;28;20127;-77
2022/05/19 07:27:05;;;;;;;0.00;0.00;;;22.20;99.90;;;;;;5058138;28;20576;-77
2022/05/19 07:29:31;;;;;;;0.00;0.00;;;22.10;99.90;;;;;;5058123;28;20051;-77
2022/05/19 07:32:00;;;;;;;0.00;0.00;;;22.00;99.90;;;;;;5074620;28;20119;-77
2022/05/19 07:34:28;;;;;;;0.00;0.00;;;21.90;99.90;;;;;;5074616;28;20123;-78
2022/05/19 07:36:55;;;;;;;0.00;0.00;;;21.80;99.90;;;;;;5057610;28;20056;-77
2022/05/19 07:39:21;;;;;;;0.00;0.00;;;21.70;99.90;;;;;;5074574;28;20045;-78
2022/05/19 07:41:48;;;;;;;0.00;0.00;;;21.70;99.90;;;;;;5074607;28;20070;-78
2022/05/19 07:44:14;;;;;;;0.00;0.00;;;21.60;99.90;;;;;;5057651;28;20103;-77
2022/05/19 07:46:39;;;;;;;0.00;0.00;;;21.60;99.90;;;;;;5074313;28;20399;-78
2022/05/19 07:49:06;;;;;;;0.00;0.00;;;21.40;99.90;;;;;;5073226;28;20052;-79
2022/05/19 07:51:39;;;;;;;0.45;0.17;;;21.40;99.90;;;;;;5074748;28;20140;-79
2022/05/19 07:54:07;;;;;;;0.70;0.10;;;21.20;99.90;;;;;;5057633;28;20036;-80
2022/05/19 07:56:33;;;;;;;0.00;0.00;;;21.10;99.90;;;;;;5057555;28;20049;-78
2022/05/19 07:59:00;;;;;;;0.30;0.17;;;21.00;99.90;;;;;;5057493;28;20044;-78
2022/05/19 08:01:26;;;;;;;0.00;0.00;;;20.80;99.90;;;;;;5057369;28;20139;-79
2022/05/19 08:03:52;;;;;;;0.00;0.00;;;20.80;99.90;;;;;;5056869;28;20484;-78
2022/05/19 08:06:17;;;;;;;0.00;0.00;;;20.80;99.90;;;;;;5073888;28;20079;-78
2022/05/19 08:08:43;;;;;;;0.00;0.00;;;20.90;99.90;;;;;;5055911;28;20055;-79
2022/05/19 08:11:10;;;;;;;0.93;0.00;;;20.90;99.90;;;;;;5057036;28;20056;-79
2022/05/19 08:16:19;;;;;;;0.00;0.00;;;21.00;99.90;;;;;;5073693;28;20091;-79
2022/05/19 08:18:45;;;;;;;0.00;0.00;;;21.00;99.90;;;;;;5073490;28;20112;-80
2022/05/19 08:21:12;;;;;;;0.00;0.00;;;21.10;99.90;;;;;;5073700;28;20048;-79
2022/05/19 08:23:44;;;;;;;0.00;0.00;;;21.10;99.90;;;;;;5073116;28;20178;-79
2022/05/19 08:26:11;;;;;;;3.20;1.17;;;21.10;99.90;;;;;;5057127;28;20045;-79
2022/05/19 08:28:38;;;;;;;0.00;0.00;;;21.10;99.90;;;;;;5056654;28;20150;-79
2022/05/19 08:31:13;;;;;;;0.00;0.00;;;21.20;99.90;;;;;;5056529;28;20052;-79
2022/05/19 08:33:41;;;;;;;7.88;0.95;;;21.30;99.90;;;;;;5073215;28;20044;-79
2022/05/19 08:36:08;;;;;;;0.00;0.00;;;21.30;99.90;;;;;;5073353;28;20048;-79
2022/05/19 08:38:35;;;;;;;0.00;0.00;;;21.30;99.90;;;;;;5056692;28;20048;-79
2022/05/19 08:41:11;;;;;;;0.00;0.00;;;21.40;99.90;;;;;;5073374;28;20051;-80
2022/05/19 08:44:02;;;;;;;0.05;0.00;;;21.40;99.90;;;;;;5073493;28;20403;-80
2022/05/19 08:46:35;;;;;;;0.00;0.00;;;21.50;99.90;;;;;;5073037;28;20480;-80
2022/05/19 08:49:13;;;;;;;0.10;0.10;;;21.60;99.90;;;;;;5055859;28;20048;-80
2022/05/19 08:51:49;;;;;;;0.00;0.00;;;21.70;99.90;;;;;;5072626;28;20098;-82
2022/05/19 08:54:20;;;;;;;0.00;0.00;;;21.70;99.90;;;;;;5072307;28;20126;-81
2022/05/19 08:57:08;;;;;;;0.00;0.00;;;21.80;99.90;;;;;;5073204;28;20057;-80
2022/05/19 08:59:48;;;;;;;0.63;0.25;;;21.90;99.90;;;;;;5056320;28;20484;-81
2022/05/19 09:02:22;;;;;;;0.15;0.05;;;21.90;99.90;;;;;;5055867;28;20045;-81
2022/05/19 09:05:31;;;;;;;0.00;0.00;;;21.90;99.90;;;;;;5071955;28;20119;-81
2022/05/19 09:08:10;;;;;;;0.00;0.00;;;21.90;99.90;;;;;;5055963;28;20064;-81
2022/05/19 09:10:55;;;;;;;1.20;0.20;;;22.00;99.90;;;;;;5055721;28;20081;-80
2022/05/19 09:13:59;;;;;;;0.00;0.00;;;22.20;99.90;;;;;;5072325;28;20484;-81
2022/05/19 09:16:29;;;;;;;0.00;0.00;;;22.30;99.90;;;;;;5055714;28;20057;-81
2022/05/19 09:19:01;;;;;;;0.00;0.00;;;22.40;99.90;;;;;;5054600;28;20087;-80
2022/05/19 09:21:27;;;;;;;0.25;0.25;;;22.50;99.90;;;;;;5072578;28;20139;-81
2022/05/19 09:23:53;;;;;;;0.00;0.00;;;22.60;99.90;;;;;;5072525;28;20132;-80
2022/05/19 09:26:54;;;;;;;0.00;0.00;;;22.60;99.90;;;;;;5072676;28;20174;-81
2022/05/19 09:29:31;;;;;;;0.10;0.10;;;22.70;99.90;;;;;;5072350;28;20531;-79
2022/05/19 09:32:15;;;;;;;0.00;0.00;;;22.70;99.90;;;;;;5072573;28;20499;-80
2022/05/19 09:34:49;;;;;;;0.00;0.00;;;22.90;99.90;;;;;;5072863;28;20044;-79
2022/05/19 09:37:18;;;;;;;0.47;0.40;;;23.10;99.90;;;;;;5072228;28;20131;-79
2022/05/19 09:39:44;;;;;;;0.00;0.00;;;23.40;99.90;;;;;;5055539;28;20545;-79
2022/05/19 09:42:14;;;;;;;0.00;0.00;;;23.60;99.90;;;;;;5055528;28;20060;-80
2022/05/19 09:44:48;;;;;;;0.00;0.00;;;23.80;99.90;;;;;;5056260;28;20052;-79
2022/05/19 09:47:26;;;;;;;0.65;0.35;;;24.00;99.90;;;;;;5072912;28;20106;-79
2022/05/19 09:49:56;;;;;;;0.00;0.00;;;24.10;99.90;;;;;;5072301;28;20106;-79
2022/05/19 09:52:26;;;;;;;0.00;0.00;;;24.20;99.90;;;;;;5072377;28;20131;-79
2022/05/19 09:55:03;;;;;;;0.08;0.08;;;24.30;99.90;;;;;;5056556;28;20052;-79
2022/05/19 09:57:51;;;;;;;0.00;0.00;;;24.40;99.90;;;;;;5055651;28;20132;-79
2022/05/19 10:00:25;;;;;;;0.17;0.10;;;24.40;99.90;;;;;;5055564;28;20496;-79
2022/05/19 10:02:55;;;;;;;0.98;0.57;;;24.60;99.90;;;;;;5056519;28;20075;-79
2022/05/19 10:05:36;;;;;;;0.03;0.03;;;24.70;99.90;;;;;;5056100;28;20055;-79
2022/05/19 10:08:07;;;;;;;0.43;0.05;;;25.00;99.90;;;;;;5072613;28;20128;-79
2022/05/19 10:10:47;;;;;;;0.00;0.00;;;25.10;99.90;;;;;;5072407;28;20144;-79
2022/05/19 10:13:14;;;;;;;0.47;0.17;;;25.10;99.90;;;;;;5072219;28;20092;-79
2022/05/19 10:15:43;;;;;;;0.00;0.00;;;25.20;99.90;;;;;;5072794;28;20052;-79
2022/05/19 10:18:21;;;;;;;0.00;0.00;;;25.30;99.90;;;;;;5055489;28;20143;-79
2022/05/19 10:21:13;;;;;;;0.00;0.00;;;25.50;99.60;;;;;;5072447;28;20044;-79
2022/05/19 10:23:54;;;;;;;0.00;0.00;;;25.70;99.20;;;;;;5055842;28;20088;-79
2022/05/19 10:26:31;;;;;;;0.10;0.00;;;25.90;99.10;;;;;;5072533;28;20044;-80
2022/05/19 10:32:31;;;;;;;0.03;0.00;;;25.80;97.40;;;;;;5035697;28;20103;-79
2022/05/19 10:35:10;;;;;;;0.00;0.00;;;25.80;98.20;;;;;;5037605;28;20082;-80
2022/05/19 10:37:35;;;;;;;0.00;0.00;;;25.90;98.00;;;;;;5038305;28;20053;-79
2022/05/19 10:40:22;;;;;;;0.00;0.00;;;26.00;96.90;;;;;;5038123;28;20053;-79
2022/05/19 10:43:11;;;;;;;0.20;0.20;;;25.90;96.60;;;;;;5037475;28;20115;-79
2022/05/19 10:45:39;;;;;;;0.03;0.03;;;25.80;96.40;;;;;;5037498;28;20061;-80
2022/05/19 10:48:47;;;;;;;0.00;0.00;;;25.70;96.70;;;;;;5037821;28;20123;-79
2022/05/19 10:51:24;;;;;;;0.17;0.17;;;25.50;95.90;;;;;;4978474;28;20447;-80
2022/05/19 10:54:03;;;;;;;0.00;0.00;;;25.50;95.60;;;;;;4978923;28;20065;-80
2022/05/19 10:56:29;;;;;;;0.00;0.00;;;25.60;96.60;;;;;;4978822;28;20511;-79
2022/05/19 10:59:11;;;;;;;0.00;0.00;;;25.70;97.00;;;;;;4978688;28;20053;-80
2022/05/19 11:02:07;;;;;;;0.00;0.00;;;25.60;96.30;;;;;;4978635;28;20085;-79
2022/05/19 11:05:00;;;;;;;0.00;0.00;;;25.50;95.40;;;;;;4978786;28;20506;-80
2022/05/19 11:07:29;;;;;;;0.00;0.00;;;25.60;96.20;;;;;;4984508;28;20050;-79
2022/05/19 11:10:13;;;;;;;0.00;0.00;;;25.70;95.40;;;;;;5001199;28;20413;-78
2022/05/19 11:12:57;;;;;;;0.00;0.00;;;25.80;94.80;;;;;;5001665;28;20044;-78
2022/05/19 11:15:44;;;;;;;0.00;0.00;;;26.00;93.90;;;;;;5017680;28;20103;-79
2022/05/19 11:18:29;;;;;;;0.00;0.00;;;26.20;94.30;;;;;;5017740;28;20072;-78
2022/05/19 11:21:23;;;;;;;0.00;0.00;;;26.30;93.30;;;;;;5017977;28;20140;-78
2022/05/19 11:23:57;;;;;;;1.02;0.30;;;26.50;93.70;;;;;;5017485;28;20520;-78
2022/05/19 11:26:35;;;;;;;0.95;0.30;;;26.70;93.00;;;;;;5001629;28;20500;-78
2022/05/19 11:29:23;;;;;;;0.00;0.00;;;27.00;92.20;;;;;;5055307;28;20076;-78
2022/05/19 11:32:02;;;;;;;0.00;0.00;;;27.20;93.10;;;;;;5074961;28;20052;-77
2022/05/19 11:35:08;;;;;;;0.00;0.00;;;27.40;92.00;;;;;;5057985;28;20045;-78
2022/05/19 11:37:52;;;;;;;0.00;0.00;;;27.50;90.50;;;;;;5057844;28;20047;-78
2022/05/19 11:40:50;;;;;;;0.13;0.08;;;27.80;90.80;;;;;;5074615;28;20557;-78
2022/05/19 11:43:41;;;;;;;0.00;0.00;;;28.10;92.00;;;;;;5073612;28;20048;-78
2022/05/19 11:46:11;;;;;;;0.00;0.00;;;27.90;88.50;;;;;;5068769;28;20056;-77
2022/05/19 11:57:59;;;;;;;0.00;0.00;;;28.10;85.70;;;;;;5074939;28;20048;-78
2022/05/19 12:01:01;;;;;;;0.10;0.10;;;28.10;84.60;;;;;;5074591;28;20136;-78
2022/05/19 12:03:59;;;;;;;0.00;0.00;;;28.10;85.40;;;;;;5019931;28;20401;-80
2022/05/19 12:06:31;;;;;;;0.10;0.10;;;28.10;83.20;;;;;;5036670;28;20072;-79
2022/05/19 12:09:19;;;;;;;0.10;0.00;;;28.00;83.90;;;;;;5036247;28;20132;-78
2022/05/19 12:11:45;;;;;;;0.00;0.00;;;27.90;82.00;;;;;;5036451;28;20056;-78
2022/05/19 12:14:11;;;;;;;0.08;0.08;;;27.80;81.60;;;;;;5036274;28;20061;-78
2022/05/19 12:16:49;;;;;;;0.00;0.00;;;27.60;82.10;;;;;;5036270;28;20049;-78
2022/05/19 12:19:52;;;;;;;0.55;0.00;;;27.60;83.30;;;;;;5036311;28;20179;-78
2022/05/19 12:22:24;;;;;;;0.00;0.00;;;27.40;79.20;;;;;;4961337;28;20058;-78
2022/05/19 12:25:01;;;;;;;0.00;0.00;;;27.40;80.00;;;;;;4977173;28;20152;-78
2022/05/19 12:27:40;;;;;;;0.05;0.00;;;27.30;81.40;;;;;;4977103;28;20565;-79
2022/05/19 12:33:29;;;;;;;0.38;0.10;;;27.20;80.40;;;;;;4977435;28;20057;-79
2022/05/19 12:36:12;;;;;;;0.00;0.00;;;27.10;81.60;;;;;;4977406;28;20054;-78
2022/05/19 12:38:40;;;;;;;0.00;0.00;;;27.00;80.80;;;;;;4979891;28;20069;-78
2022/05/19 12:41:22;;;;;;;0.00;0.00;;;26.80;85.20;;;;;;5016002;28;20152;-79
2022/05/19 12:43:49;;;;;;;0.00;0.00;;;26.70;89.60;;;;;;4999555;28;20502;-78
2022/05/19 12:46:33;;;;;;;0.00;0.00;;;26.40;88.10;;;;;;5016146;28;20049;-79
2022/05/19 12:49:35;;;;;;;0.00;0.00;;;26.20;87.80;;;;;;5015197;28;20166;-79
2022/05/19 12:52:05;;;;;;;0.00;0.00;;;26.00;85.90;;;;;;4973867;28;20047;-79
2022/05/19 12:54:33;;;;;;;0.00;0.00;;;25.80;85.70;;;;;;4957187;28;20058;-79
2022/05/19 12:57:08;;;;;;;0.00;0.00;;;25.70;87.80;;;;;;4982941;28;20057;-79
2022/05/19 12:59:37;;;;;;;0.00;0.00;;;25.30;93.60;;;;;;5015668;28;20087;-80
2022/05/19 13:02:09;;;;;;;3.83;0.52;;;24.90;96.00;;;;;;4999650;28;20079;-80
2022/05/19 13:04:48;;;;;;;0.00;0.00;;;24.40;95.80;;;;;;5015890;28;20049;-81
2022/05/19 13:07:40;;;;;;;0.10;0.10;;;24.00;97.80;;;;;;5015108;28;20503;-81
2022/05/19 13:10:20;;;;;;;0.00;0.00;;;23.60;97.80;;;;;;5015277;28;20041;-82
2022/05/19 13:12:54;;;;;;;0.00;0.00;;;23.30;99.20;;;;;;5015361;28;20085;-82
2022/05/19 13:15:21;;;;;;;;;;;23.10;99.90;;;;;;5016160;28;20041;-83
2022/05/19 13:17:49;;;;;;;0.00;0.00;;;22.80;99.90;;;;;;5015405;28;19952;-82
2022/05/19 13:20:21;;;;;;;0.10;0.10;;;22.50;99.90;;;;;;5015349;28;20153;-83
2022/05/19 13:22:50;;;;;;;0.00;0.00;;;22.30;99.90;;;;;;5015416;28;20064;-80
2022/05/19 13:25:16;;;;;;;0.22;0.10;;;22.10;99.90;;;;;;5024214;28;20499;-81
2022/05/19 13:30:54;;;;;;;0.00;0.00;;;21.70;99.90;;;;;;5072469;28;20045;-84
2022/05/19 13:33:28;;;;;;;0.20;0.20;;;21.40;99.90;;;;;;5053640;28;20063;-83
2022/05/19 13:36:11;;;;;;;0.00;0.00;;;21.20;99.90;;;;;;5073212;28;20115;-83
2022/05/19 13:38:37;;;;;;;0.00;0.00;;;21.00;99.90;;;;;;5055992;28;20040;-83